TIPO2: N. Fork Red River nr Tipton, OK

Data processed at Thu May 23 2019 23:50


All information presented herein is the property of the government of the United States of America and may be revised or deleted at any time without prior notice.
Dissemination of this information without the expressed written consent of the Public Affairs Office, Tulsa District U.S. Army Corps of Engineers is strictly prohibited.
These data are gathered electronically and, as presented, have not undergone any form of quality control. These data are not guaranteed to be valid or correct.
Go to home page.
Go to station list.
Go to home page.

Upstream stations:

Downstream station:
Previous Day
Next Day
Current Day
    
SHEF ID:       TIPO2     North Fork Red River near Tipton
STATION TYPE:  
Regulating: Stage =    14.00, Flow =     9148

                STAGE  RIV-FLOW   VOLTAGE  BAT-LOAD
                   ft       cfs      volt      volt
              Ccp-Rev   Ccp-Rev   Ccp-Rev   Ccp-Rev
(US/Central)
05/23 00:00     14.03      9233     12.65     12.49
05/23 01:00     14.05      9291     12.57     12.41
05/23 02:00     14.07      9348     12.57     12.41
05/23 03:00     14.13      9531     12.57     12.41
05/23 04:00     14.15      9592     12.57     12.41
05/23 05:00     14.21      9780     12.57     12.41
05/23 06:00     14.20      9748     12.57     12.41
05/23 07:00     14.29     10034     12.57     12.41
05/23 08:00     14.25      9906     12.57     12.41
05/23 09:00     14.31     10098     12.57     12.41
05/23 10:00     14.30     10066     12.65     12.41
05/23 11:00     14.33     10163     12.73     12.57
05/23 12:00     14.29     10034     12.89     12.73
05/23 13:00     14.30     10066     13.05     12.73
05/23 14:00     14.37     10293     13.05     12.81
05/23 15:00     14.32     10131     13.29     13.05
05/23 16:00     14.33     10163     13.44     13.29
05/23 17:00     14.26      9938     13.84     13.21
05/23 18:00     14.25      9906     13.29     13.13
05/23 19:00     14.20      9748     13.21     13.13
05/23 20:00     14.11      9469     12.89     12.89
05/23 21:00     14.03      9233     12.65     12.57
05/23 22:00     13.94      8980     12.65     12.49
05/23 23:00     13.86      8758     12.65     12.41